Time;durP1;ratioP1;P1;durP2;ratioP2;P2;SDS_P1;SDS_P2;PMS_P1;PMS_P2;Temp;Humidity;BMP_temperature;BMP_pressure;BME280_temperature;BME280_humidity;BME280_pressure;Samples;Min_cycle;Max_cycle;Signal;HPM_P1;HPM_P2
2023/03/25 00:00:06;;;;;;;4.80;2.27;;;15.50;39.40;;;;;;5054926;28;20165;-48
2023/03/25 00:02:33;;;;;;;5.88;2.53;;;15.60;39.30;;;;;;5054904;28;20403;-50
2023/03/25 00:04:59;;;;;;;4.50;2.33;;;15.50;39.30;;;;;;5054616;28;20570;-48
2023/03/25 00:07:25;;;;;;;4.28;2.15;;;15.50;39.30;;;;;;5054174;28;20196;-49
2023/03/25 00:09:50;;;;;;;5.87;2.90;;;15.40;39.30;;;;;;5054863;28;20181;-50
2023/03/25 00:12:16;;;;;;;5.73;2.27;;;15.50;39.20;;;;;;5054492;28;20204;-50
2023/03/25 00:14:43;;;;;;;4.10;2.60;;;15.50;39.20;;;;;;5054647;28;20181;-47
2023/03/25 00:17:09;;;;;;;4.10;2.78;;;15.50;39.10;;;;;;5054243;28;20412;-48
2023/03/25 00:19:35;;;;;;;6.35;2.05;;;15.40;39.10;;;;;;5054360;28;20553;-50
2023/03/25 00:22:01;;;;;;;4.60;2.40;;;15.40;39.20;;;;;;5054546;28;20169;-48
2023/03/25 00:24:27;;;;;;;4.47;1.97;;;15.40;39.10;;;;;;5054615;28;20403;-50
2023/03/25 00:26:53;;;;;;;5.40;2.70;;;15.30;39.10;;;;;;5053950;28;20229;-48
2023/03/25 00:29:19;;;;;;;3.60;1.73;;;15.20;39.40;;;;;;5054386;28;20695;-50
2023/03/25 00:31:45;;;;;;;5.95;2.03;;;15.20;39.30;;;;;;5054338;28;20911;-50
2023/03/25 00:34:13;;;;;;;3.63;2.47;;;15.20;39.30;;;;;;5054142;28;20181;-48
2023/03/25 00:36:40;;;;;;;2.70;2.25;;;15.20;39.30;;;;;;5053838;28;20740;-50
2023/03/25 00:39:07;;;;;;;4.22;2.55;;;15.20;39.30;;;;;;5053885;28;20202;-48
2023/03/25 00:41:35;;;;;;;3.40;2.30;;;15.20;39.30;;;;;;5053954;28;20542;-50
2023/03/25 00:44:03;;;;;;;5.50;2.75;;;15.10;39.20;;;;;;5054064;28;20184;-50
2023/03/25 00:46:31;;;;;;;3.75;2.00;;;15.00;39.60;;;;;;5053739;28;20172;-50
2023/03/25 00:48:57;;;;;;;4.53;2.08;;;15.00;39.60;;;;;;5053281;28;20288;-50
2023/03/25 00:51:25;;;;;;;4.40;2.30;;;15.00;39.60;;;;;;5053714;28;20173;-50
2023/03/25 00:53:52;;;;;;;3.90;1.95;;;15.10;39.60;;;;;;5053910;28;20216;-51
2023/03/25 00:56:22;;;;;;;3.75;2.35;;;15.10;39.60;;;;;;5053800;28;20177;-50
2023/03/25 00:58:48;;;;;;;3.70;1.70;;;15.10;39.50;;;;;;5053645;28;20200;-50
2023/03/25 01:01:17;;;;;;;5.40;1.87;;;15.00;39.40;;;;;;5069199;28;20162;-49
2023/03/25 01:03:43;;;;;;;4.65;2.17;;;15.00;39.10;;;;;;5053758;28;20822;-50
2023/03/25 01:06:14;;;;;;;2.58;1.88;;;15.00;39.50;;;;;;5053318;28;20239;-50
2023/03/25 01:08:42;;;;;;;3.63;2.03;;;15.00;39.60;;;;;;5053326;28;20208;-49
2023/03/25 01:11:21;;;;;;;9.82;2.35;;;15.00;39.80;;;;;;5053580;28;20185;-48
2023/03/25 01:13:47;;;;;;;3.17;1.83;;;15.00;39.60;;;;;;5053352;28;20185;-51
2023/03/25 01:16:13;;;;;;;2.67;2.00;;;14.90;39.70;;;;;;5053002;28;20231;-51
2023/03/25 01:18:40;;;;;;;4.97;2.03;;;15.00;39.60;;;;;;5053312;28;20192;-50
2023/03/25 01:21:06;;;;;;;4.45;2.10;;;15.10;39.50;;;;;;5053326;28;20431;-50
2023/03/25 01:23:32;;;;;;;7.28;2.08;;;15.10;39.30;;;;;;5053464;28;20185;-50
2023/03/25 01:25:58;;;;;;;5.43;2.65;;;15.10;39.30;;;;;;5053077;28;20600;-49
2023/03/25 01:28:24;;;;;;;7.53;2.27;;;15.10;39.20;;;;;;5052898;28;20599;-50
2023/03/25 01:30:50;;;;;;;4.90;2.13;;;15.10;39.10;;;;;;5053297;28;20555;-50
2023/03/25 01:33:16;;;;;;;7.40;2.40;;;15.00;39.20;;;;;;5053180;28;20204;-50
2023/03/25 01:35:41;;;;;;;2.43;1.33;;;15.00;39.30;;;;;;5053172;28;20165;-50
2023/03/25 01:38:07;;;;;;;5.83;2.90;;;15.10;39.30;;;;;;5052983;28;20200;-50
2023/03/25 01:40:33;;;;;;;6.57;2.43;;;15.10;39.30;;;;;;5053069;28;20169;-49
2023/03/25 01:42:59;;;;;;;5.17;2.40;;;15.10;39.20;;;;;;5053213;28;20408;-47
2023/03/25 01:45:33;;;;;;;5.55;1.88;;;15.00;39.30;;;;;;5052704;28;20497;-50
2023/03/25 01:48:09;;;;;;;4.55;1.75;;;14.90;39.60;;;;;;5052446;28;20197;-48
2023/03/25 01:50:37;;;;;;;5.95;2.60;;;14.90;39.90;;;;;;5052892;28;20200;-50
2023/03/25 01:53:05;;;;;;;4.95;1.90;;;14.90;39.80;;;;;;5052565;28;20205;-50
2023/03/25 01:55:33;;;;;;;6.05;2.30;;;15.00;39.80;;;;;;5052908;28;20207;-49
2023/03/25 01:58:03;;;;;;;4.35;1.98;;;15.00;39.70;;;;;;5052105;28;20200;-50
2023/03/25 02:00:30;;;;;;;4.55;2.50;;;14.90;39.80;;;;;;5052115;28;20618;-50
2023/03/25 02:02:58;;;;;;;6.43;3.15;;;15.00;39.60;;;;;;5052383;28;20668;-48
2023/03/25 02:05:51;;;;;;;2.95;2.20;;;15.00;39.70;;;;;;5052551;28;20260;-50
2023/03/25 02:08:17;;;;;;;2.35;1.67;;;15.10;39.50;;;;;;5051582;28;20204;-51
2023/03/25 02:10:47;;;;;;;8.77;2.42;;;15.10;39.60;;;;;;5052328;28;20707;-48
2023/03/25 02:13:14;;;;;;;6.45;2.20;;;15.20;39.50;;;;;;5052496;28;20201;-51
2023/03/25 02:16:05;;;;;;;3.63;1.77;;;15.20;39.50;;;;;;5052215;28;20634;-51
2023/03/25 02:18:42;;;;;;;4.35;2.30;;;15.20;39.40;;;;;;5052024;28;20696;-50
2023/03/25 02:21:22;;;;;;;4.20;2.00;;;15.20;39.50;;;;;;5052397;28;20638;-51
2023/03/25 02:24:03;;;;;;;9.15;2.83;;;15.20;39.40;;;;;;5052382;28;20180;-48
2023/03/25 02:27:12;;;;;;;4.78;2.40;;;15.20;39.30;;;;;;5051871;28;20197;-51
2023/03/25 02:29:53;;;;;;;7.60;2.45;;;15.30;39.20;;;;;;5052140;28;20177;-50
2023/03/25 02:32:50;;;;;;;4.20;2.08;;;15.20;39.20;;;;;;5052126;28;20267;-50
2023/03/25 02:35:28;;;;;;;4.07;1.80;;;15.20;39.20;;;;;;5051988;28;20600;-50
2023/03/25 02:38:06;;;;;;;4.15;2.30;;;15.20;39.30;;;;;;5051710;28;20182;-48
2023/03/25 02:40:34;;;;;;;3.35;2.10;;;15.20;39.10;;;;;;5051987;28;20688;-48
2023/03/25 02:43:22;;;;;;;5.03;1.70;;;15.20;39.00;;;;;;5051924;28;20201;-48
2023/03/25 02:45:52;;;;;;;6.85;2.50;;;15.30;39.10;;;;;;5051802;28;20260;-48
2023/03/25 02:48:54;;;;;;;3.05;2.10;;;15.30;38.90;;;;;;5051766;28;20242;-49
2023/03/25 02:51:34;;;;;;;5.05;2.45;;;15.40;38.80;;;;;;5051060;28;20185;-51
2023/03/25 02:54:07;;;;;;;4.35;2.10;;;15.40;38.60;;;;;;5051894;28;20211;-51
2023/03/25 02:56:35;;;;;;;3.17;2.40;;;15.40;38.60;;;;;;5051692;28;20649;-50
2023/03/25 02:59:03;;;;;;;6.30;2.10;;;15.40;38.60;;;;;;5052021;28;20203;-48
2023/03/25 03:01:28;;;;;;;2.28;1.75;;;15.40;38.70;;;;;;5052337;28;20177;-51
2023/03/25 03:03:55;;;;;;;4.07;2.00;;;15.40;38.70;;;;;;5051877;28;20173;-51
2023/03/25 03:06:23;;;;;;;3.92;2.08;;;15.50;38.70;;;;;;5051572;28;20180;-50
2023/03/25 03:08:57;;;;;;;3.17;1.60;;;15.50;38.60;;;;;;5051815;28;20197;-48
2023/03/25 03:11:44;;;;;;;7.93;2.20;;;15.50;38.60;;;;;;5053068;28;20220;-50
2023/03/25 03:14:31;;;;;;;5.60;1.98;;;15.50;38.60;;;;;;5055671;28;20268;-49
2023/03/25 03:17:34;;;;;;;5.80;1.95;;;15.60;38.50;;;;;;5055312;28;20204;-49
2023/03/25 03:20:27;;;;;;;3.75;2.00;;;15.60;38.50;;;;;;5055473;28;20181;-48
2023/03/25 03:23:09;;;;;;;7.30;2.63;;;15.50;38.50;;;;;;5055591;28;20193;-48
2023/03/25 03:26:03;;;;;;;3.30;2.25;;;15.50;38.40;;;;;;5055274;28;20653;-51
2023/03/25 03:28:48;;;;;;;5.40;2.50;;;15.50;38.60;;;;;;5055369;28;20215;-48
2023/03/25 03:31:24;;;;;;;3.78;2.22;;;15.40;38.50;;;;;;5055356;28;20841;-48
2023/03/25 03:33:49;;;;;;;4.45;1.95;;;15.40;38.60;;;;;;5055089;28;20242;-50
2023/03/25 03:36:23;;;;;;;4.27;2.60;;;15.40;38.50;;;;;;5054948;28;20185;-51
2023/03/25 03:38:58;;;;;;;3.15;2.28;;;15.40;38.60;;;;;;5055175;28;20598;-48
2023/03/25 03:41:26;;;;;;;2.80;1.88;;;15.40;38.50;;;;;;5055149;28;20185;-50
2023/03/25 03:44:02;;;;;;;3.00;2.20;;;15.40;38.60;;;;;;5055024;28;20181;-49
2023/03/25 03:46:37;;;;;;;5.75;1.90;;;15.30;38.40;;;;;;5054844;28;20176;-48
2023/03/25 03:49:07;;;;;;;3.45;1.95;;;15.10;38.90;;;;;;5054946;28;20728;-49
2023/03/25 03:51:42;;;;;;;3.20;2.10;;;15.20;39.00;;;;;;5054940;28;20184;-50
2023/03/25 03:54:17;;;;;;;5.90;3.78;;;15.20;38.90;;;;;;5054926;28;20649;-47
2023/03/25 03:56:52;;;;;;;3.58;1.85;;;15.20;38.80;;;;;;5054608;28;20254;-50
2023/03/25 03:59:53;;;;;;;4.13;1.98;;;15.30;38.50;;;;;;5054993;28;20176;-50
2023/03/25 04:02:40;;;;;;;2.67;2.00;;;15.30;38.30;;;;;;5054786;28;20200;-50
2023/03/25 04:05:10;;;;;;;4.13;1.40;;;15.20;38.00;;;;;;5054612;28;20181;-50
2023/03/25 04:08:01;;;;;;;2.85;1.90;;;15.10;38.40;;;;;;5054270;28;20681;-50
2023/03/25 04:10:38;;;;;;;2.00;1.30;;;15.20;38.00;;;;;;5054588;28;20527;-48
2023/03/25 04:13:07;;;;;;;4.07;1.48;;;15.10;38.30;;;;;;5054538;28;20266;-50
2023/03/25 04:15:33;;;;;;;3.40;1.73;;;15.10;38.40;;;;;;5054502;28;20161;-47
2023/03/25 04:18:00;;;;;;;3.20;1.80;;;15.20;38.40;;;;;;5054223;28;20190;-49
2023/03/25 04:20:32;;;;;;;2.97;1.30;;;15.20;38.10;;;;;;5054492;28;20411;-50
2023/03/25 04:22:58;;;;;;;3.42;1.73;;;15.10;38.10;;;;;;5053702;28;20254;-48
2023/03/25 04:25:24;;;;;;;2.40;1.00;;;15.10;38.30;;;;;;5054283;28;20661;-50
2023/03/25 04:27:52;;;;;;;3.60;1.00;;;15.20;38.00;;;;;;5053835;28;20440;-50
2023/03/25 04:30:19;;;;;;;1.83;1.02;;;15.10;38.00;;;;;;5054222;28;20637;-49
2023/03/25 04:32:46;;;;;;;2.20;1.38;;;15.00;38.10;;;;;;5054079;28;20673;-47
2023/03/25 04:35:18;;;;;;;2.97;1.98;;;15.10;38.20;;;;;;5054243;28;20634;-50
2023/03/25 04:37:44;;;;;;;3.28;1.33;;;15.10;38.30;;;;;;5053929;28;20200;-51
2023/03/25 04:40:12;;;;;;;2.10;1.33;;;15.20;38.10;;;;;;5054040;28;20695;-48
2023/03/25 04:42:41;;;;;;;3.38;1.20;;;15.20;38.10;;;;;;5053837;28;20261;-50
2023/03/25 04:45:13;;;;;;;2.38;1.40;;;15.20;38.00;;;;;;5054112;28;20584;-50
2023/03/25 04:47:43;;;;;;;2.58;2.00;;;15.20;37.80;;;;;;5053826;28;20197;-50
2023/03/25 04:50:18;;;;;;;4.78;2.50;;;15.10;38.20;;;;;;5053868;28;20572;-51
2023/03/25 04:52:44;;;;;;;2.17;1.10;;;15.10;38.10;;;;;;5053782;28;20284;-48
2023/03/25 04:55:16;;;;;;;2.80;1.05;;;15.10;38.20;;;;;;5054096;28;20181;-48
2023/03/25 04:57:44;;;;;;;2.05;1.35;;;15.00;38.30;;;;;;5053739;28;20197;-50
2023/03/25 05:00:12;;;;;;;2.03;1.35;;;15.00;38.40;;;;;;5053658;28;20653;-48
2023/03/25 05:02:45;;;;;;;1.75;1.30;;;14.90;38.50;;;;;;5053707;28;20196;-48
2023/03/25 05:05:17;;;;;;;2.63;0.98;;;14.80;38.60;;;;;;5053679;28;20514;-50
2023/03/25 05:07:45;;;;;;;2.47;1.02;;;14.60;38.80;;;;;;5053263;28;20239;-48
2023/03/25 05:10:11;;;;;;;1.75;0.88;;;14.50;39.00;;;;;;5053784;28;20180;-47
2023/03/25 05:12:37;;;;;;;2.17;0.85;;;14.60;39.00;;;;;;5053417;28;20632;-50
2023/03/25 05:15:04;;;;;;;2.00;0.90;;;14.60;38.60;;;;;;5053469;28;20173;-48
2023/03/25 05:17:30;;;;;;;2.25;0.95;;;14.50;39.00;;;;;;5053142;28;20247;-50
2023/03/25 05:19:56;;;;;;;1.48;0.65;;;14.50;38.70;;;;;;5053224;28;20173;-51
2023/03/25 05:22:22;;;;;;;1.10;0.47;;;14.50;38.70;;;;;;5053212;28;20657;-49
2023/03/25 05:24:49;;;;;;;2.40;1.23;;;14.60;38.50;;;;;;5053224;28;20174;-51
2023/03/25 05:27:19;;;;;;;0.98;0.55;;;14.60;38.50;;;;;;5052730;28;20251;-49
2023/03/25 05:29:45;;;;;;;2.63;0.98;;;14.70;38.20;;;;;;5053184;28;20177;-49
2023/03/25 05:32:17;;;;;;;2.53;0.70;;;14.60;38.40;;;;;;5052898;28;20612;-51
2023/03/25 05:34:46;;;;;;;1.85;0.65;;;14.50;38.50;;;;;;5053000;28;20181;-48
2023/03/25 05:37:13;;;;;;;2.25;0.82;;;14.60;38.50;;;;;;5053007;28;20189;-49
2023/03/25 05:39:38;;;;;;;1.73;0.90;;;14.70;38.20;;;;;;5053074;28;20265;-51
2023/03/25 05:42:04;;;;;;;1.53;0.50;;;14.70;37.80;;;;;;5052915;28;20228;-49
2023/03/25 05:44:30;;;;;;;1.10;0.80;;;14.70;38.10;;;;;;5052837;28;20188;-49
2023/03/25 05:46:59;;;;;;;1.53;0.67;;;14.60;37.10;;;;;;5052461;28;20222;-51
2023/03/25 05:49:26;;;;;;;4.32;0.90;;;14.70;37.60;;;;;;5052992;28;20165;-51
2023/03/25 05:51:53;;;;;;;3.88;0.80;;;14.70;37.20;;;;;;5052536;28;20177;-48
2023/03/25 05:54:19;;;;;;;1.20;0.57;;;14.60;36.90;;;;;;5052949;28;20184;-48
2023/03/25 05:56:44;;;;;;;1.65;0.63;;;14.60;36.60;;;;;;5052621;28;20181;-51
2023/03/25 05:59:10;;;;;;;1.40;0.67;;;14.60;36.90;;;;;;5052561;28;20557;-48
2023/03/25 06:01:42;;;;;;;3.83;1.33;;;14.60;36.30;;;;;;5052654;28;20223;-51
2023/03/25 06:04:08;;;;;;;1.20;0.82;;;14.60;36.60;;;;;;5052825;28;20402;-51
2023/03/25 06:06:34;;;;;;;5.10;0.73;;;14.70;36.20;;;;;;5052214;28;20181;-49
2023/03/25 06:09:01;;;;;;;1.33;0.60;;;14.60;35.40;;;;;;5052646;28;20205;-50
2023/03/25 06:11:27;;;;;;;1.20;0.65;;;14.70;35.10;;;;;;5052376;28;20197;-48
2023/03/25 06:13:52;;;;;;;1.30;0.70;;;14.70;35.40;;;;;;5052536;28;20232;-51
2023/03/25 06:16:21;;;;;;;2.13;0.80;;;14.70;35.10;;;;;;5052000;28;20892;-49
2023/03/25 06:18:50;;;;;;;3.25;0.80;;;14.50;35.60;;;;;;5052143;28;20212;-49
2023/03/25 06:21:19;;;;;;;1.10;0.52;;;14.30;36.10;;;;;;5052484;28;20227;-51
2023/03/25 06:23:48;;;;;;;1.50;0.80;;;14.30;36.70;;;;;;5052342;28;20553;-51
2023/03/25 06:26:19;;;;;;;1.90;0.82;;;14.20;36.90;;;;;;5051948;28;20258;-48
2023/03/25 06:28:45;;;;;;;2.03;0.63;;;14.20;36.90;;;;;;5051986;28;20196;-50
2023/03/25 06:31:17;;;;;;;1.70;0.60;;;14.10;37.20;;;;;;5052203;28;20269;-48
2023/03/25 06:33:44;;;;;;;1.88;0.75;;;14.00;37.90;;;;;;5051980;28;20196;-48
2023/03/25 06:36:11;;;;;;;2.28;0.95;;;13.90;38.10;;;;;;5051848;28;20173;-51
2023/03/25 06:38:38;;;;;;;1.38;0.85;;;13.90;38.40;;;;;;5052042;28;20189;-48
2023/03/25 06:41:04;;;;;;;2.25;0.95;;;13.80;38.50;;;;;;5052251;28;20181;-48
2023/03/25 06:43:29;;;;;;;1.93;0.93;;;13.90;38.90;;;;;;5051776;28;20189;-51
2023/03/25 06:45:55;;;;;;;1.10;0.40;;;14.00;38.50;;;;;;5051430;28;20497;-48
2023/03/25 06:48:21;;;;;;;1.90;1.00;;;14.10;38.10;;;;;;5051667;28;20225;-50
2023/03/25 06:50:46;;;;;;;2.97;1.20;;;14.20;38.10;;;;;;5051867;28;20173;-48
2023/03/25 06:53:12;;;;;;;6.60;1.70;;;14.20;38.20;;;;;;5051829;28;20201;-48
2023/03/25 06:55:38;;;;;;;2.57;1.23;;;14.40;38.00;;;;;;5051748;28;20575;-51
2023/03/25 06:58:04;;;;;;;1.30;0.90;;;14.80;37.20;;;;;;5051457;28;20316;-51
2023/03/25 07:00:30;;;;;;;3.53;1.20;;;15.00;37.00;;;;;;5051889;28;20169;-48
2023/03/25 07:02:57;;;;;;;1.80;1.15;;;15.00;36.10;;;;;;5052040;28;20177;-50
2023/03/25 07:05:24;;;;;;;3.63;1.25;;;14.90;36.20;;;;;;5051711;28;20256;-47
2023/03/25 07:07:49;;;;;;;1.35;0.98;;;14.80;36.00;;;;;;5051455;28;20198;-48
2023/03/25 07:10:15;;;;;;;2.13;0.83;;;14.90;36.10;;;;;;5051584;28;20227;-51
2023/03/25 07:12:41;;;;;;;5.40;1.17;;;14.90;35.70;;;;;;5051518;28;20208;-50
2023/03/25 07:15:07;;;;;;;2.87;0.97;;;14.80;35.70;;;;;;5051940;28;20962;-48
2023/03/25 07:17:33;;;;;;;1.92;1.35;;;14.80;36.00;;;;;;5051581;28;20597;-51
2023/03/25 07:19:59;;;;;;;3.20;0.90;;;14.70;36.40;;;;;;5051832;28;20169;-50
2023/03/25 07:22:25;;;;;;;4.90;1.33;;;14.70;36.30;;;;;;5051824;28;21048;-48
2023/03/25 07:24:51;;;;;;;3.73;1.23;;;14.70;36.20;;;;;;5051367;28;20404;-49
2023/03/25 07:27:17;;;;;;;3.65;1.45;;;14.80;35.70;;;;;;5051392;28;20519;-48
2023/03/25 07:29:43;;;;;;;2.33;1.33;;;14.80;36.30;;;;;;5051663;28;20165;-48
2023/03/25 07:32:09;;;;;;;2.83;1.00;;;15.10;35.70;;;;;;5051682;28;20180;-50
2023/03/25 07:34:35;;;;;;;2.80;1.00;;;15.30;35.20;;;;;;5051453;28;20170;-49
2023/03/25 07:37:00;;;;;;;3.37;0.73;;;15.30;34.70;;;;;;5066650;28;20485;-51
2023/03/25 07:39:26;;;;;;;1.67;0.93;;;15.20;35.20;;;;;;5051354;28;20173;-51
2023/03/25 07:41:52;;;;;;;4.70;1.40;;;15.20;34.30;;;;;;5051711;28;20170;-49
2023/03/25 07:44:21;;;;;;;2.13;1.13;;;15.10;34.70;;;;;;5051387;28;20177;-49
2023/03/25 07:46:48;;;;;;;2.03;1.27;;;15.10;35.00;;;;;;5051112;28;20412;-51
2023/03/25 07:49:15;;;;;;;2.88;1.30;;;15.00;34.80;;;;;;5051421;28;20550;-48
2023/03/25 07:51:41;;;;;;;4.07;1.50;;;14.90;35.30;;;;;;5051335;28;20173;-48
2023/03/25 07:54:07;;;;;;;5.00;1.48;;;14.80;35.20;;;;;;5051069;28;20278;-50
2023/03/25 07:56:33;;;;;;;5.30;1.40;;;14.70;35.50;;;;;;5051333;28;20263;-49
2023/03/25 07:58:59;;;;;;;4.60;1.65;;;14.80;35.70;;;;;;5053321;28;20292;-51
2023/03/25 08:01:25;;;;;;;4.43;1.67;;;14.90;35.50;;;;;;5054979;28;20697;-49
2023/03/25 08:03:51;;;;;;;2.40;1.20;;;14.90;35.50;;;;;;5054787;28;20457;-51
2023/03/25 08:06:16;;;;;;;2.47;1.30;;;14.90;36.10;;;;;;5054459;28;20173;-48
2023/03/25 08:08:42;;;;;;;3.40;1.07;;;15.00;36.10;;;;;;5054417;28;20430;-48
2023/03/25 08:11:08;;;;;;;1.60;0.97;;;15.10;36.00;;;;;;5054835;28;20412;-50
2023/03/25 08:13:34;;;;;;;2.97;0.90;;;15.00;36.60;;;;;;5054768;28;20204;-50
2023/03/25 08:16:00;;;;;;;4.10;1.40;;;14.90;37.30;;;;;;5054646;28;20177;-50
2023/03/25 08:18:25;;;;;;;2.70;0.70;;;14.90;37.30;;;;;;5054233;28;20564;-51
2023/03/25 08:20:51;;;;;;;2.27;1.30;;;14.90;38.40;;;;;;5054375;28;20576;-48
2023/03/25 08:23:18;;;;;;;2.40;1.37;;;14.70;39.10;;;;;;5054485;28;20491;-51
2023/03/25 08:25:49;;;;;;;1.20;0.70;;;14.70;39.10;;;;;;5054149;28;20216;-48
2023/03/25 08:28:21;;;;;;;1.90;1.02;;;14.60;39.30;;;;;;5053977;28;20628;-49
2023/03/25 08:30:48;;;;;;;8.05;2.35;;;14.60;39.70;;;;;;5054483;28;20165;-51
2023/03/25 08:33:15;;;;;;;6.90;1.50;;;14.70;39.80;;;;;;5054089;28;20200;-49
2023/03/25 08:35:41;;;;;;;2.90;1.00;;;14.70;40.00;;;;;;5054355;28;20227;-48
2023/03/25 08:38:07;;;;;;;5.65;1.35;;;14.80;40.40;;;;;;5054005;28;20193;-51
2023/03/25 08:40:35;;;;;;;2.30;0.77;;;14.70;41.40;;;;;;5054036;28;20181;-49
2023/03/25 08:43:04;;;;;;;3.08;2.33;;;14.70;41.40;;;;;;5053964;28;20177;-48
2023/03/25 08:45:31;;;;;;;5.15;2.35;;;14.70;41.30;;;;;;5053944;28;20697;-50
2023/03/25 08:47:57;;;;;;;3.80;1.20;;;14.70;42.00;;;;;;5053686;28;20210;-48
2023/03/25 08:50:23;;;;;;;4.53;2.00;;;14.60;42.80;;;;;;5054010;28;20177;-49
2023/03/25 08:52:52;;;;;;;3.20;1.77;;;14.50;43.00;;;;;;5053737;28;20673;-50
2023/03/25 08:55:18;;;;;;;6.63;1.90;;;14.40;43.80;;;;;;5053905;28;20170;-48
2023/03/25 08:57:44;;;;;;;1.65;1.52;;;14.40;44.30;;;;;;5053466;28;20677;-49
2023/03/25 09:00:13;;;;;;;1.80;1.03;;;14.20;44.80;;;;;;5053707;28;20181;-49
2023/03/25 09:02:40;;;;;;;3.30;1.45;;;14.00;45.40;;;;;;5053874;28;20182;-48
2023/03/25 09:05:09;;;;;;;2.55;1.13;;;14.10;45.20;;;;;;5053893;28;20185;-49
2023/03/25 09:07:35;;;;;;;5.20;1.67;;;14.00;45.60;;;;;;5053507;28;20530;-52
2023/03/25 09:10:02;;;;;;;1.95;1.35;;;13.90;45.10;;;;;;5053179;28;20169;-48
2023/03/25 09:12:29;;;;;;;3.20;1.00;;;13.80;45.80;;;;;;5053383;28;20200;-50
2023/03/25 09:14:55;;;;;;;2.75;1.52;;;13.80;46.10;;;;;;5053413;28;20184;-52
2023/03/25 09:17:20;;;;;;;1.57;1.00;;;13.70;45.60;;;;;;5053118;28;20189;-52
2023/03/25 09:19:46;;;;;;;2.80;1.23;;;13.60;45.80;;;;;;5053234;28;20439;-49
2023/03/25 09:22:12;;;;;;;1.93;1.53;;;13.60;46.20;;;;;;5053436;28;20680;-48
2023/03/25 09:24:39;;;;;;;4.10;1.40;;;13.60;46.70;;;;;;5053269;28;20403;-50
2023/03/25 09:27:05;;;;;;;3.65;1.02;;;13.60;46.50;;;;;;5052773;28;20596;-49
2023/03/25 09:29:35;;;;;;;1.88;0.85;;;13.50;46.80;;;;;;5053087;28;20166;-49
2023/03/25 09:32:01;;;;;;;2.65;0.82;;;13.40;46.20;;;;;;5052887;28;20649;-48
2023/03/25 09:34:27;;;;;;;1.77;0.97;;;13.40;47.20;;;;;;5053016;28;20212;-53
2023/03/25 09:36:54;;;;;;;5.85;1.33;;;13.20;46.70;;;;;;5052736;28;20431;-50
2023/03/25 09:39:20;;;;;;;3.08;1.48;;;13.20;46.80;;;;;;5052980;28;20173;-48
2023/03/25 09:42:27;;;;;;;3.05;0.75;;;13.10;46.80;;;;;;5052889;28;20546;-47
2023/03/25 09:45:02;;;;;;;2.47;0.95;;;13.10;46.70;;;;;;5052682;28;20597;-50
2023/03/25 09:47:32;;;;;;;3.20;1.60;;;13.20;47.10;;;;;;5052856;28;20188;-50
2023/03/25 09:50:01;;;;;;;1.92;1.00;;;13.40;46.80;;;;;;5052974;28;20181;-49
2023/03/25 09:52:42;;;;;;;3.00;1.40;;;13.50;46.40;;;;;;5052784;28;20220;-48
2023/03/25 09:55:14;;;;;;;2.08;1.30;;;13.60;46.10;;;;;;5052804;28;20165;-49
2023/03/25 09:57:47;;;;;;;4.80;1.17;;;13.70;46.00;;;;;;5052413;28;20192;-51
2023/03/25 10:00:24;;;;;;;2.38;1.35;;;13.80;46.80;;;;;;5052564;28;20162;-51
2023/03/25 10:03:01;;;;;;;2.03;1.30;;;13.90;46.10;;;;;;5052632;28;20252;-48
2023/03/25 10:05:47;;;;;;;1.60;1.17;;;14.00;46.30;;;;;;5052492;28;20165;-51
2023/03/25 10:08:25;;;;;;;2.72;1.50;;;14.30;46.40;;;;;;5052363;28;20197;-48
2023/03/25 10:11:17;;;;;;;2.33;1.40;;;14.50;47.30;;;;;;5052569;28;20181;-50
2023/03/25 10:13:53;;;;;;;3.67;1.27;;;14.80;49.00;;;;;;5052148;28;20221;-51
2023/03/25 10:16:37;;;;;;;4.32;1.30;;;15.10;46.00;;;;;;5052243;28;20169;-50
2023/03/25 10:19:14;;;;;;;2.95;1.52;;;15.30;44.80;;;;;;5052058;28;20745;-51
2023/03/25 10:22:08;;;;;;;1.75;1.20;;;15.60;43.50;;;;;;5051657;28;20172;-49
2023/03/25 10:25:01;;;;;;;7.57;2.38;;;15.70;44.40;;;;;;5052651;28;20157;-49
2023/03/25 10:27:38;;;;;;;2.83;1.98;;;16.00;43.70;;;;;;5051983;28;20244;-48
2023/03/25 10:30:15;;;;;;;3.45;1.50;;;16.20;42.20;;;;;;5052329;28;20541;-49
2023/03/25 10:32:57;;;;;;;1.80;1.20;;;16.40;40.40;;;;;;5052015;28;20739;-48
2023/03/25 10:35:35;;;;;;;1.40;1.00;;;16.30;40.30;;;;;;5052124;28;20177;-50
2023/03/25 10:38:11;;;;;;;2.90;1.38;;;16.30;40.40;;;;;;5051614;28;20201;-51
2023/03/25 10:40:43;;;;;;;2.40;1.35;;;16.40;39.80;;;;;;5052012;28;20287;-50
2023/03/25 10:43:33;;;;;;;3.47;1.27;;;16.50;39.20;;;;;;5052254;28;20176;-52
2023/03/25 10:46:36;;;;;;;3.85;1.48;;;16.60;39.50;;;;;;5051928;28;20208;-51
2023/03/25 10:49:02;;;;;;;3.20;1.38;;;16.70;39.40;;;;;;5051514;28;20283;-48
2023/03/25 10:51:34;;;;;;;1.80;1.05;;;16.50;36.60;;;;;;5051871;28;20221;-49
2023/03/25 10:54:00;;;;;;;5.95;1.80;;;16.20;37.50;;;;;;5051789;28;20275;-51
2023/03/25 10:56:35;;;;;;;1.30;0.80;;;16.00;37.70;;;;;;5051528;28;20184;-49
2023/03/25 10:59:10;;;;;;;1.77;1.20;;;15.90;37.20;;;;;;5052142;28;20189;-50
2023/03/25 11:01:41;;;;;;;1.50;0.90;;;15.70;37.20;;;;;;5050466;28;20222;-49
2023/03/25 11:04:14;;;;;;;2.88;1.30;;;15.80;37.70;;;;;;5052092;28;20541;-48
2023/03/25 11:06:44;;;;;;;6.13;1.45;;;15.90;37.30;;;;;;5051628;28;20545;-51
2023/03/25 11:09:14;;;;;;;4.55;1.63;;;15.90;39.90;;;;;;5051531;28;20200;-48
2023/03/25 11:11:41;;;;;;;2.22;1.00;;;15.80;39.90;;;;;;5051638;28;20184;-50
2023/03/25 11:14:07;;;;;;;2.15;1.13;;;15.80;40.00;;;;;;5051466;28;20188;-49
2023/03/25 11:16:39;;;;;;;2.70;1.15;;;15.90;41.70;;;;;;5051417;28;20188;-48
2023/03/25 11:19:05;;;;;;;3.38;1.33;;;16.00;42.60;;;;;;5051816;28;20550;-50
2023/03/25 11:21:35;;;;;;;3.53;1.20;;;16.00;42.80;;;;;;5051771;28;20666;-50
2023/03/25 11:24:04;;;;;;;5.43;1.50;;;16.10;42.20;;;;;;5051804;28;20220;-48
2023/03/25 11:26:40;;;;;;;2.40;1.58;;;16.20;43.60;;;;;;5051109;28;20200;-50
2023/03/25 11:29:15;;;;;;;2.10;1.20;;;16.30;42.60;;;;;;5051776;28;20219;-51
2023/03/25 11:31:42;;;;;;;2.00;1.00;;;16.30;42.30;;;;;;5051797;28;20184;-49
2023/03/25 11:34:19;;;;;;;2.97;1.52;;;16.20;42.20;;;;;;5055271;28;20193;-50
2023/03/25 11:36:45;;;;;;;5.05;1.45;;;15.90;42.30;;;;;;5055411;28;20197;-49
2023/03/25 11:39:39;;;;;;;1.77;1.40;;;15.60;42.50;;;;;;5055231;28;20290;-51
2023/03/25 11:42:27;;;;;;;1.35;0.95;;;15.40;43.50;;;;;;5055136;28;20645;-50
2023/03/25 11:44:58;;;;;;;3.65;1.50;;;15.00;42.60;;;;;;5055304;28;20256;-49
2023/03/25 11:47:34;;;;;;;1.33;0.82;;;14.40;43.30;;;;;;5054619;28;20612;-50
2023/03/25 11:50:00;;;;;;;2.58;1.73;;;14.30;44.70;;;;;;5055394;28;20157;-49
2023/03/25 11:52:42;;;;;;;1.48;1.20;;;14.40;44.00;;;;;;5054869;28;20255;-48
2023/03/25 11:55:52;;;;;;;2.50;1.00;;;14.60;43.40;;;;;;5054967;28;20177;-51
2023/03/25 11:58:32;;;;;;;1.45;0.77;;;14.70;40.00;;;;;;5054722;28;20244;-48
2023/03/25 12:01:06;;;;;;;3.47;1.10;;;14.80;39.90;;;;;;5054999;28;20180;-49
2023/03/25 12:03:34;;;;;;;2.35;1.48;;;14.90;40.60;;;;;;5054652;28;20200;-49
2023/03/25 12:06:05;;;;;;;3.40;2.22;;;15.10;41.80;;;;;;5054691;28;20174;-50
2023/03/25 12:08:42;;;;;;;2.38;1.70;;;15.60;43.60;;;;;;5054700;28;20557;-49
2023/03/25 12:11:15;;;;;;;2.15;1.00;;;16.20;41.00;;;;;;5054882;28;20184;-50
2023/03/25 12:13:50;;;;;;;1.40;0.93;;;16.70;40.80;;;;;;5054606;28;20193;-51
2023/03/25 12:16:30;;;;;;;2.63;1.40;;;17.20;37.00;;;;;;5054384;28;20184;-48
2023/03/25 12:19:13;;;;;;;1.65;0.93;;;17.50;39.10;;;;;;5054342;28;20731;-52
2023/03/25 12:22:03;;;;;;;2.40;1.10;;;17.90;34.30;;;;;;5054746;28;20180;-48
2023/03/25 12:25:07;;;;;;;2.90;1.40;;;17.80;34.80;;;;;;5054706;28;20161;-51
2023/03/25 12:27:51;;;;;;;1.30;0.93;;;17.80;34.60;;;;;;5053538;28;20211;-49
2023/03/25 12:30:24;;;;;;;2.08;1.15;;;17.90;33.60;;;;;;5054351;28;20632;-48
2023/03/25 12:33:08;;;;;;;1.42;0.80;;;18.00;35.60;;;;;;5054236;28;20204;-51
2023/03/25 12:35:48;;;;;;;1.77;1.20;;;18.10;34.30;;;;;;5054125;28;20644;-48
2023/03/25 12:38:15;;;;;;;1.33;0.70;;;18.00;33.80;;;;;;5053896;28;20743;-50
2023/03/25 12:41:01;;;;;;;3.90;1.05;;;18.00;34.00;;;;;;5054079;28;20173;-51
2023/03/25 12:43:41;;;;;;;3.65;1.33;;;18.40;35.00;;;;;;5053780;28;20177;-49
2023/03/25 12:46:41;;;;;;;2.47;1.15;;;18.80;32.40;;;;;;5053870;28;20248;-50
2023/03/25 12:49:17;;;;;;;2.38;1.23;;;18.80;31.10;;;;;;5053645;28;20201;-48
2023/03/25 12:51:46;;;;;;;1.20;0.73;;;18.30;29.80;;;;;;5054184;28;20157;-50
2023/03/25 12:54:30;;;;;;;1.35;0.82;;;17.70;31.90;;;;;;5053886;28;20224;-51
2023/03/25 12:57:37;;;;;;;4.45;1.45;;;17.20;34.10;;;;;;5053545;28;20158;-49
2023/03/25 13:00:36;;;;;;;1.80;1.25;;;16.40;37.00;;;;;;5051644;28;20203;-49
2023/03/25 13:03:44;;;;;;;1.20;0.80;;;16.50;37.60;;;;;;5054006;28;20561;-50
2023/03/25 13:06:36;;;;;;;1.50;1.10;;;16.90;37.60;;;;;;5053344;28;20177;-48
2023/03/25 13:09:25;;;;;;;1.40;1.20;;;17.30;36.00;;;;;;5053183;28;20197;-49
2023/03/25 13:11:57;;;;;;;2.30;1.33;;;17.70;35.60;;;;;;5052734;28;20220;-51